Time;durP1;ratioP1;P1;durP2;ratioP2;P2;SDS_P1;SDS_P2;PMS_P1;PMS_P2;Temp;Humidity;BMP_temperature;BMP_pressure;BME280_temperature;BME280_humidity;BME280_pressure;Samples;Min_cycle;Max_cycle;Signal;HPM_P1;HPM_P2
2023/11/17 00:01:29;;;;;;;11.20;8.90;;;;;;;3.32;100.00;97180.48;110209;1241;69193;-66
2023/11/17 00:03:59;;;;;;;11.30;9.20;;;;;;;3.34;100.00;97174.10;110238;1241;59742;-66
2023/11/17 00:06:30;;;;;;;10.90;8.30;;;;;;;3.36;100.00;97173.82;110242;1242;59704;-66
2023/11/17 00:09:05;;;;;;;10.80;7.70;;;;;;;3.39;100.00;97171.39;110104;1241;71184;-66
2023/11/17 00:11:34;;;;;;;9.50;7.20;;;;;;;3.46;100.00;97164.88;110208;1240;69723;-66
2023/11/17 00:14:06;;;;;;;10.70;7.30;;;;;;;3.49;100.00;97164.00;110286;1241;69114;-66
2023/11/17 00:16:40;;;;;;;9.50;8.20;;;;;;;3.53;100.00;97163.81;110213;1241;59708;-66
2023/11/17 00:19:12;;;;;;;9.20;7.10;;;;;;;3.58;100.00;97157.74;110310;1241;59683;-66
2023/11/17 00:21:44;;;;;;;10.10;7.10;;;;;;;3.62;100.00;97149.80;110256;1241;71382;-66
2023/11/17 00:24:17;;;;;;;9.80;6.60;;;;;;;3.67;100.00;97143.71;110259;1249;69090;-66
2023/11/17 00:26:49;;;;;;;7.60;5.80;;;;;;;3.69;100.00;97135.66;110250;1240;69082;-66
2023/11/17 00:29:23;;;;;;;8.00;6.20;;;;;;;3.72;100.00;97131.02;110256;1241;59769;-66
2023/11/17 00:31:55;;;;;;;9.90;6.80;;;;;;;3.77;100.00;97116.66;110172;1244;59692;-66
2023/11/17 00:34:26;;;;;;;8.50;6.90;;;;;;;3.82;100.00;97105.34;110134;1244;71383;-66
2023/11/17 00:36:58;;;;;;;11.80;7.60;;;;;;;3.90;100.00;97099.46;110161;1245;68312;-66
2023/11/17 00:39:29;;;;;;;8.50;6.50;;;;;;;3.96;100.00;97089.27;110179;1245;69319;-66
2023/11/17 00:42:08;;;;;;;9.40;7.30;;;;;;;4.01;100.00;97077.34;110150;1243;59744;-66
2023/11/17 00:44:47;;;;;;;10.90;7.80;;;;;;;4.03;100.00;97054.82;110278;1241;59752;-66
2023/11/17 00:47:17;;;;;;;9.10;7.40;;;;;;;4.04;100.00;97048.88;110219;1241;71523;-64
2023/11/17 00:49:52;;;;;;;8.50;6.50;;;;;;;4.03;100.00;97065.85;110131;1245;69315;-64
2023/11/17 00:52:23;;;;;;;9.40;6.90;;;;;;;4.01;100.00;97076.98;110260;1240;69262;-66
2023/11/17 00:55:02;;;;;;;8.50;6.00;;;;;;;3.98;100.00;97086.10;110280;1242;59759;-64
2023/11/17 00:57:47;;;;;;;8.50;5.90;;;;;;;3.93;100.00;97093.29;110169;1241;59745;-64
2023/11/17 01:00:22;;;;;;;8.50;6.00;;;;;;;3.86;100.00;97091.70;110256;1242;69951;-65
2023/11/17 01:03:00;;;;;;;7.80;5.90;;;;;;;3.79;100.00;97086.54;110230;1242;69209;-65
2023/11/17 01:05:36;;;;;;;9.90;7.50;;;;;;;3.71;100.00;97092.99;110135;1245;69575;-66
2023/11/17 01:08:11;;;;;;;7.70;5.70;;;;;;;3.65;100.00;97098.66;110147;1241;60098;-66
2023/11/17 01:10:45;;;;;;;8.60;5.50;;;;;;;3.57;100.00;97107.27;110213;1243;59699;-65
2023/11/17 01:13:22;;;;;;;7.10;5.50;;;;;;;3.49;100.00;97111.14;110184;1241;70679;-66
2023/11/17 01:15:55;;;;;;;7.00;5.40;;;;;;;3.41;100.00;97106.36;110156;1240;68507;-65
2023/11/17 01:18:28;;;;;;;8.80;5.60;;;;;;;3.34;100.00;97106.89;110142;1244;68501;-65
2023/11/17 01:21:04;;;;;;;8.60;5.80;;;;;;;3.28;100.00;97113.54;110257;1242;59666;-65
2023/11/17 01:23:38;;;;;;;7.80;6.00;;;;;;;3.21;100.00;97103.75;110250;1240;59740;-65
2023/11/17 01:26:11;;;;;;;7.10;5.10;;;;;;;3.13;100.00;97098.11;110315;1240;70661;-66
2023/11/17 01:28:42;;;;;;;7.40;5.80;;;;;;;3.04;100.00;97091.98;110135;1246;69250;-66
2023/11/17 01:31:19;;;;;;;9.10;5.80;;;;;;;2.97;100.00;97083.48;110246;1241;69334;-66
2023/11/17 01:34:01;;;;;;;7.70;4.90;;;;;;;2.92;100.00;97080.16;110113;1241;59711;-65
2023/11/17 01:36:37;;;;;;;6.90;5.00;;;;;;;2.87;100.00;97076.95;110249;1240;59670;-65
2023/11/17 01:39:09;;;;;;;6.10;4.60;;;;;;;2.79;100.00;97072.14;110188;1242;71946;-65
2023/11/17 01:41:52;;;;;;;7.90;5.50;;;;;;;2.71;100.00;97077.67;110256;1242;68396;-65
2023/11/17 01:44:29;;;;;;;;;;;;;;;2.63;100.00;97085.13;110145;1240;68489;-65
2023/11/17 01:47:05;;;;;;;11.20;7.10;;;;;;;2.51;100.00;97084.27;110173;1242;59750;-65
2023/11/17 01:49:37;;;;;;;9.00;7.10;;;;;;;2.42;100.00;97077.31;110106;1242;59717;-65
2023/11/17 01:52:12;;;;;;;12.00;8.00;;;;;;;2.35;100.00;97068.15;110232;1241;71257;-66
2023/11/17 01:54:48;;;;;;;9.80;7.90;;;;;;;2.31;100.00;97066.63;110278;1242;69264;-66
2023/11/17 01:57:21;;;;;;;11.70;7.10;;;;;;;2.28;100.00;97059.71;110219;1241;68418;-65
2023/11/17 01:59:58;;;;;;;11.30;7.60;;;;;;;2.26;100.00;97051.70;110234;1244;59682;-64
2023/11/17 02:02:52;;;;;;;9.10;6.50;;;;;;;2.27;100.00;97040.48;110303;1241;59743;-66
2023/11/17 02:05:29;;;;;;;7.20;5.70;;;;;;;2.32;100.00;97035.98;110170;1244;70489;-64
2023/11/17 02:08:35;;;;;;;12.40;9.20;;;;;;;2.36;100.00;97031.84;110136;1244;69242;-64
2023/11/17 02:11:37;;;;;;;13.10;8.20;;;;;;;2.36;100.00;97022.90;110260;1241;69286;-67
2023/11/17 02:14:24;;;;;;;11.30;7.40;;;;;;;2.35;100.00;97014.67;110288;1241;59764;-67
2023/11/17 02:16:56;;;;;;;10.50;7.60;;;;;;;2.33;100.00;97012.39;110191;1244;59708;-64
2023/11/17 02:19:43;;;;;;;12.90;8.20;;;;;;;2.30;100.00;97009.20;110110;1244;71418;-67
2023/11/17 02:22:19;;;;;;;12.70;8.70;;;;;;;2.30;100.00;97004.89;110084;1241;68540;-66
2023/11/17 02:24:57;;;;;;;10.30;7.80;;;;;;;2.32;100.00;97002.59;110205;1241;68526;-66
2023/11/17 02:27:46;;;;;;;10.70;7.90;;;;;;;2.34;100.00;97001.99;110264;1240;59687;-66
2023/11/17 02:30:22;;;;;;;10.10;7.20;;;;;;;2.35;100.00;96995.77;110333;1242;59690;-66
2023/11/17 02:32:59;;;;;;;9.10;6.80;;;;;;;2.34;100.00;96989.27;110171;1242;71767;-66
2023/11/17 02:35:43;;;;;;;15.80;8.60;;;;;;;2.34;100.00;96990.50;110104;1240;68367;-66
2023/11/17 02:38:20;;;;;;;7.90;6.10;;;;;;;2.36;100.00;96994.52;110252;1242;68577;-65
2023/11/17 02:40:55;;;;;;;13.50;8.20;;;;;;;2.36;100.00;96989.52;110216;1242;59705;-65
2023/11/17 02:43:37;;;;;;;11.20;8.10;;;;;;;2.39;100.00;96977.69;110126;1244;59740;-65
2023/11/17 02:46:20;;;;;;;12.00;8.20;;;;;;;2.42;100.00;96970.87;110226;1241;71493;-65
2023/11/17 02:48:53;;;;;;;9.50;7.10;;;;;;;2.42;100.00;96967.73;110176;1242;69272;-65
2023/11/17 02:51:32;;;;;;;9.70;7.00;;;;;;;2.38;100.00;96972.21;110219;1242;69351;-65
2023/11/17 02:54:12;;;;;;;8.20;6.80;;;;;;;2.37;100.00;96977.27;110184;1242;59756;-65
2023/11/17 02:56:49;;;;;;;9.10;7.10;;;;;;;2.36;100.00;96978.86;110253;1242;59740;-65
2023/11/17 02:59:20;;;;;;;7.50;5.30;;;;;;;2.33;100.00;96979.70;110259;1241;70957;-64
2023/11/17 03:01:58;;;;;;;8.80;6.30;;;;;;;2.30;100.00;96988.94;110229;1243;69216;-64
2023/11/17 03:04:37;;;;;;;7.10;5.40;;;;;;;2.29;100.00;96995.36;110131;1242;67557;-65
2023/11/17 03:07:12;;;;;;;9.10;6.80;;;;;;;2.26;100.00;96996.36;110256;1240;59689;-65
2023/11/17 03:09:51;;;;;;;7.80;5.80;;;;;;;2.22;100.00;96991.03;110258;1241;59675;-65
2023/11/17 03:12:31;;;;;;;8.00;5.70;;;;;;;2.21;100.00;96986.97;110246;1242;71300;-65
2023/11/17 03:15:04;;;;;;;8.70;6.20;;;;;;;2.19;100.00;96989.30;110248;1242;69064;-65
2023/11/17 03:17:41;;;;;;;8.90;6.00;;;;;;;2.21;100.00;96997.29;110223;1241;68525;-65
2023/11/17 03:20:14;;;;;;;9.90;5.90;;;;;;;2.22;100.00;96996.52;110203;1242;59691;-65
2023/11/17 03:22:49;;;;;;;9.40;6.50;;;;;;;2.21;100.00;96991.25;110228;1241;59667;-65
2023/11/17 03:25:25;;;;;;;10.40;7.10;;;;;;;2.22;100.00;96981.91;110190;1241;71426;-64
2023/11/17 03:27:57;;;;;;;15.20;9.60;;;;;;;2.24;100.00;96977.52;110201;1242;69683;-65
2023/11/17 03:30:29;;;;;;;12.40;8.80;;;;;;;2.27;100.00;96970.85;110133;1240;68437;-65
2023/11/17 03:33:03;;;;;;;16.70;11.30;;;;;;;2.30;100.00;96963.33;110188;1240;59757;-65
2023/11/17 03:35:41;;;;;;;16.60;11.10;;;;;;;2.33;100.00;96957.88;110225;1240;59714;-65
2023/11/17 03:38:14;;;;;;;19.70;12.30;;;;;;;2.34;100.00;96956.44;110237;1240;71419;-66
2023/11/17 03:40:46;;;;;;;15.30;9.50;;;;;;;2.34;100.00;96950.58;110234;1242;69199;-65
2023/11/17 03:43:17;;;;;;;15.10;9.60;;;;;;;2.34;100.00;96947.48;110089;1244;68736;-65
2023/11/17 03:45:48;;;;;;;12.30;9.00;;;;;;;2.33;100.00;96939.96;110284;1242;59671;-66
2023/11/17 03:48:18;;;;;;;10.10;7.70;;;;;;;2.32;100.00;96929.02;110091;1241;59655;-66
2023/11/17 03:50:49;;;;;;;13.00;8.90;;;;;;;2.30;100.00;96923.25;110226;1240;71511;-65
2023/11/17 03:53:19;;;;;;;14.00;9.40;;;;;;;2.28;100.00;96911.80;110249;1240;68584;-66
2023/11/17 03:55:53;;;;;;;13.30;9.40;;;;;;;2.28;100.00;96898.94;110265;1242;68554;-65
2023/11/17 03:58:23;;;;;;;12.20;8.40;;;;;;;2.25;100.00;96890.98;110271;1242;59752;-66
2023/11/17 04:00:54;;;;;;;12.80;9.60;;;;;;;2.22;100.00;96886.17;110350;1242;59643;-66
2023/11/17 04:03:25;;;;;;;11.60;7.70;;;;;;;2.18;100.00;96884.30;110262;1242;70498;-66
2023/11/17 04:05:54;;;;;;;10.50;7.60;;;;;;;2.14;100.00;96882.94;110249;1242;69193;-66
2023/11/17 04:08:24;;;;;;;12.60;9.30;;;;;;;2.09;100.00;96881.27;110226;1240;67591;-66
2023/11/17 04:10:55;;;;;;;12.90;9.30;;;;;;;2.05;100.00;96882.86;110235;1242;59693;-66
2023/11/17 04:13:25;;;;;;;;;;;;;;;2.00;100.00;96885.30;110148;1241;59745;-66
2023/11/17 04:15:56;;;;;;;11.00;7.60;;;;;;;1.99;100.00;96889.84;110255;1240;71236;-66
2023/11/17 04:18:27;;;;;;;11.30;8.00;;;;;;;2.01;100.00;96889.88;110271;1242;69036;-66
2023/11/17 04:20:57;;;;;;;8.90;6.30;;;;;;;2.04;100.00;96889.42;110234;1242;68566;-66
2023/11/17 04:23:27;;;;;;;9.30;6.70;;;;;;;2.10;100.00;96895.34;110241;1241;59637;-66
2023/11/17 04:26:00;;;;;;;10.70;7.80;;;;;;;2.14;100.00;96894.42;110244;1242;59714;-66
2023/11/17 04:28:33;;;;;;;9.90;7.40;;;;;;;2.19;100.00;96893.51;110241;1241;70733;-66
2023/11/17 04:31:03;;;;;;;11.60;7.70;;;;;;;2.23;100.00;96882.83;110243;1242;68695;-66
2023/11/17 04:33:34;;;;;;;10.60;6.90;;;;;;;2.29;100.00;96873.45;110210;1241;69716;-64
2023/11/17 04:36:04;;;;;;;10.80;7.30;;;;;;;2.36;100.00;96863.84;110228;1242;59702;-66
2023/11/17 04:38:34;;;;;;;10.30;6.60;;;;;;;2.41;100.00;96860.45;110285;1241;59732;-64
2023/11/17 04:41:04;;;;;;;8.40;6.60;;;;;;;2.46;100.00;96855.55;110291;1240;70921;-65
2023/11/17 04:43:35;;;;;;;12.20;7.50;;;;;;;2.50;100.00;96851.41;110222;1240;68408;-65
2023/11/17 04:46:06;;;;;;;8.80;6.50;;;;;;;2.54;100.00;96845.56;110232;1242;69239;-67
2023/11/17 04:48:37;;;;;;;9.90;6.80;;;;;;;2.57;100.00;96845.08;110227;1242;59673;-65
2023/11/17 04:51:07;;;;;;;9.80;6.50;;;;;;;2.59;100.00;96846.02;110266;1242;59691;-64
2023/11/17 04:53:37;;;;;;;9.30;7.20;;;;;;;2.61;100.00;96842.48;110216;1241;72106;-64
2023/11/17 04:56:11;;;;;;;8.90;6.30;;;;;;;2.64;100.00;96849.55;110347;1240;68420;-65
2023/11/17 04:58:41;;;;;;;8.30;6.70;;;;;;;2.67;100.00;96850.42;110246;1241;68972;-65
2023/11/17 05:01:14;;;;;;;8.80;6.70;;;;;;;2.71;100.00;96847.81;110246;1242;59677;-64
2023/11/17 05:03:46;;;;;;;11.80;8.30;;;;;;;2.77;100.00;96842.17;110251;1241;59734;-64
2023/11/17 05:06:23;;;;;;;6.90;6.00;;;;;;;2.82;100.00;96843.11;110187;1240;70472;-64
2023/11/17 05:08:53;;;;;;;11.60;8.10;;;;;;;2.88;100.00;96835.94;110248;1242;69203;-66
2023/11/17 05:11:23;;;;;;;9.80;7.80;;;;;;;2.92;100.00;96826.59;110193;1242;69270;-65
2023/11/17 05:13:53;;;;;;;9.50;7.20;;;;;;;2.97;100.00;96823.59;110055;1241;60142;-65
2023/11/17 05:16:25;;;;;;;8.60;6.40;;;;;;;3.03;100.00;96817.08;110231;1242;59798;-66
2023/11/17 05:18:56;;;;;;;8.40;6.70;;;;;;;3.09;100.00;96811.45;110183;1240;71390;-65
2023/11/17 05:21:25;;;;;;;7.90;6.50;;;;;;;3.14;100.00;96811.52;110130;1241;68475;-65
2023/11/17 05:23:55;;;;;;;8.30;6.40;;;;;;;3.18;100.00;96815.26;110115;1243;70356;-64
2023/11/17 05:26:25;;;;;;;7.90;5.90;;;;;;;3.21;100.00;96817.84;110199;1241;59644;-65
2023/11/17 05:28:54;;;;;;;;;;;;;;;3.23;100.00;96817.20;110142;1244;59630;-65
2023/11/17 05:31:26;;;;;;;9.90;6.80;;;;;;;3.25;100.00;96821.25;110331;1242;71865;-65
2023/11/17 05:33:57;;;;;;;10.00;7.50;;;;;;;3.26;100.00;96820.02;110310;1242;68498;-66
2023/11/17 05:36:27;;;;;;;9.60;7.40;;;;;;;3.26;100.00;96813.45;110222;1242;69414;-65
2023/11/17 05:38:57;;;;;;;8.40;6.50;;;;;;;3.27;100.00;96813.56;110142;1244;59714;-66
2023/11/17 05:41:27;;;;;;;9.20;7.40;;;;;;;3.28;100.00;96812.31;110185;1241;59757;-65
2023/11/17 05:43:56;;;;;;;8.00;6.70;;;;;;;3.29;100.00;96815.16;110252;1241;71986;-65
2023/11/17 05:46:25;;;;;;;7.00;6.00;;;;;;;3.33;100.00;96819.81;110240;1242;69206;-65
2023/11/17 05:48:55;;;;;;;8.50;6.70;;;;;;;3.36;100.00;96820.16;110240;1242;68537;-65
2023/11/17 05:51:25;;;;;;;;;;;;;;;3.40;100.00;96823.22;110170;1242;59701;-65
2023/11/17 05:53:55;;;;;;;7.80;6.00;;;;;;;3.43;100.00;96823.72;110062;1244;59698;-65
2023/11/17 05:56:25;;;;;;;7.30;5.80;;;;;;;3.47;100.00;96816.13;110357;1242;71994;-67
2023/11/17 05:58:57;;;;;;;9.30;7.60;;;;;;;3.50;100.00;96811.14;110145;1245;69339;-65
2023/11/17 06:01:26;;;;;;;7.00;6.10;;;;;;;3.53;100.00;96809.09;110228;1240;68619;-66
2023/11/17 06:03:56;;;;;;;10.40;8.10;;;;;;;3.58;100.00;96803.14;110244;1240;59763;-65
2023/11/17 06:06:27;;;;;;;9.80;6.70;;;;;;;3.65;100.00;96799.64;110267;1242;59695;-65
2023/11/17 06:08:57;;;;;;;8.90;6.60;;;;;;;3.66;100.00;96786.48;110243;1243;71478;-65
2023/11/17 06:11:26;;;;;;;10.10;8.30;;;;;;;3.68;100.00;96772.58;110148;1244;68036;-65
2023/11/17 06:13:56;;;;;;;9.80;7.70;;;;;;;3.70;100.00;96762.30;110204;1242;68484;-66
2023/11/17 06:16:25;;;;;;;11.00;9.60;;;;;;;3.73;100.00;96756.09;110221;1242;59689;-66
2023/11/17 06:18:56;;;;;;;15.10;11.30;;;;;;;3.76;100.00;96755.96;110163;1241;59664;-66
2023/11/17 06:21:26;;;;;;;;;;;;;;;3.79;100.00;96757.49;110279;1242;71746;-64
2023/11/17 06:23:55;;;;;;;14.10;8.90;;;;;;;3.81;100.00;96755.48;110217;1241;68514;-66
2023/11/17 06:26:27;;;;;;;;;;;;;;;3.84;100.00;96753.59;110173;1242;68291;-65
2023/11/17 06:28:59;;;;;;;10.70;7.90;;;;;;;3.85;100.00;96768.04;110258;1242;59780;-65
2023/11/17 06:31:32;;;;;;;8.40;6.60;;;;;;;3.88;100.00;96766.85;110213;1241;59718;-67
2023/11/17 06:34:02;;;;;;;9.80;7.70;;;;;;;3.97;100.00;96754.95;110187;1240;71176;-65
2023/11/17 06:36:31;;;;;;;8.20;6.40;;;;;;;4.03;100.00;96749.90;110179;1242;69879;-64
2023/11/17 06:39:01;;;;;;;7.10;6.00;;;;;;;4.12;100.00;96750.13;110178;1242;69863;-64
2023/11/17 06:41:30;;;;;;;8.10;6.70;;;;;;;4.19;100.00;96750.06;110228;1242;59677;-66
2023/11/17 06:44:00;;;;;;;6.80;5.50;;;;;;;4.27;100.00;96756.84;110271;1242;59689;-65
2023/11/17 06:46:31;;;;;;;8.00;6.10;;;;;;;4.35;100.00;96758.45;110248;1243;70865;-66
2023/11/17 06:49:04;;;;;;;6.00;5.20;;;;;;;4.46;100.00;96749.70;110105;1240;68434;-65
2023/11/17 06:51:33;;;;;;;7.10;4.20;;;;;;;4.57;100.00;96747.47;110329;1240;69912;-65
2023/11/17 06:54:10;;;;;;;7.60;6.20;;;;;;;4.68;100.00;96737.55;110276;1242;59705;-65
2023/11/17 06:56:43;;;;;;;8.40;6.90;;;;;;;4.75;100.00;96739.66;110165;1242;59760;-64
2023/11/17 06:59:15;;;;;;;9.30;8.10;;;;;;;4.82;100.00;96744.80;110081;1245;71502;-64
2023/11/17 07:01:51;;;;;;;9.40;6.20;;;;;;;4.90;100.00;96750.67;110208;1242;68511;-66
2023/11/17 07:04:21;;;;;;;8.60;6.80;;;;;;;5.01;100.00;96752.77;110177;1242;69170;-65
2023/11/17 07:06:52;;;;;;;8.30;6.00;;;;;;;5.08;100.00;96750.63;110233;1241;59687;-66
2023/11/17 07:09:23;;;;;;;6.20;5.20;;;;;;;5.13;100.00;96751.14;110247;1242;59693;-66
2023/11/17 07:11:59;;;;;;;5.80;4.80;;;;;;;5.23;100.00;96749.73;110261;1241;71818;-64
2023/11/17 07:14:30;;;;;;;6.20;4.40;;;;;;;5.30;100.00;96748.42;110201;1242;69251;-64
2023/11/17 07:17:04;;;;;;;6.30;4.00;;;;;;;5.35;100.00;96745.17;110211;1249;69360;-64
2023/11/17 07:19:34;;;;;;;4.80;4.00;;;;;;;5.44;100.00;96742.72;110096;1245;59750;-64
2023/11/17 07:22:04;;;;;;;4.60;3.70;;;;;;;5.49;100.00;96739.78;110192;1242;59749;-63
2023/11/17 07:24:33;;;;;;;4.50;3.20;;;;;;;5.56;100.00;96741.05;110223;1242;71194;-64
2023/11/17 07:27:03;;;;;;;3.70;3.10;;;;;;;5.63;100.00;96744.08;110190;1242;67335;-64
2023/11/17 07:29:36;;;;;;;5.20;3.60;;;;;;;5.70;100.00;96744.86;110190;1242;69235;-64
2023/11/17 07:32:05;;;;;;;4.50;4.10;;;;;;;5.74;100.00;96740.26;110185;1242;59738;-64
2023/11/17 07:34:35;;;;;;;8.30;7.40;;;;;;;5.80;100.00;96734.38;110205;1242;59633;-63
2023/11/17 07:37:04;;;;;;;11.30;9.40;;;;;;;5.82;100.00;96735.95;110201;1240;70755;-64
2023/11/17 07:39:34;;;;;;;;;;;;;;;5.86;100.00;96735.18;110184;1242;69358;-64
2023/11/17 07:42:04;;;;;;;6.00;5.30;;;;;;;5.91;100.00;96740.04;110195;1240;68618;-64
2023/11/17 07:44:36;;;;;;;5.70;5.10;;;;;;;5.95;100.00;96736.90;110176;1241;59741;-64
2023/11/17 07:47:05;;;;;;;5.30;4.60;;;;;;;5.99;100.00;96735.03;110213;1242;59678;-64
2023/11/17 07:49:37;;;;;;;4.40;3.80;;;;;;;6.03;100.00;96734.46;110240;1242;70708;-63
2023/11/17 07:52:06;;;;;;;4.70;3.70;;;;;;;6.09;100.00;96731.64;110218;1242;68488;-64
2023/11/17 07:54:35;;;;;;;4.20;3.50;;;;;;;6.18;100.00;96736.95;110174;1242;68587;-63
2023/11/17 07:57:05;;;;;;;4.10;3.30;;;;;;;6.23;100.00;96738.14;110265;1249;59743;-63
2023/11/17 07:59:35;;;;;;;3.50;2.90;;;;;;;6.26;100.00;96741.91;110248;1242;59696;-64
2023/11/17 08:02:06;;;;;;;4.40;3.40;;;;;;;6.29;100.00;96734.28;110230;1244;71407;-64
2023/11/17 08:04:35;;;;;;;3.20;2.60;;;;;;;6.32;100.00;96734.63;110166;1240;67275;-64
2023/11/17 08:07:05;;;;;;;2.90;2.60;;;;;;;6.34;100.00;96735.50;110164;1242;69209;-64
2023/11/17 08:09:35;;;;;;;3.80;2.80;;;;;;;6.37;100.00;96733.96;110126;1242;59692;-64
2023/11/17 08:12:04;;;;;;;6.30;5.70;;;;;;;6.39;100.00;96735.67;110233;1241;59737;-64
2023/11/17 08:14:33;;;;;;;6.80;5.00;;;;;;;6.42;100.00;96733.41;110135;1241;70635;-64
2023/11/17 08:17:03;;;;;;;5.70;5.00;;;;;;;6.45;100.00;96732.38;110229;1242;69655;-64
2023/11/17 08:19:34;;;;;;;7.50;6.10;;;;;;;6.48;100.00;96726.27;110184;1242;69719;-64
2023/11/17 08:22:04;;;;;;;8.30;5.70;;;;;;;6.55;100.00;96726.02;110226;1241;60140;-64
2023/11/17 08:24:33;;;;;;;7.10;6.00;;;;;;;6.61;100.00;96721.77;110245;1242;59721;-64
2023/11/17 08:27:03;;;;;;;8.00;6.50;;;;;;;6.69;100.00;96716.58;110255;1242;71805;-64
2023/11/17 08:29:32;;;;;;;4.90;4.10;;;;;;;6.73;99.87;96708.13;110231;1241;69688;-64
2023/11/17 08:32:02;;;;;;;3.80;2.90;;;;;;;6.78;99.92;96704.14;110233;1242;69900;-64
2023/11/17 08:34:31;;;;;;;3.90;2.80;;;;;;;6.82;99.23;96699.50;110201;1242;59701;-65
2023/11/17 08:37:04;;;;;;;4.10;2.80;;;;;;;6.88;98.37;96691.48;110215;1240;59669;-65
2023/11/17 08:39:34;;;;;;;3.00;2.70;;;;;;;6.95;97.70;96691.38;110250;1242;71168;-64
2023/11/17 08:42:03;;;;;;;5.40;3.80;;;;;;;7.04;96.96;96686.04;110247;1242;68403;-66
2023/11/17 08:44:33;;;;;;;;;;;;;;;7.14;96.49;96675.86;110229;1245;68136;-66
2023/11/17 08:47:04;;;;;;;5.20;2.70;;;;;;;7.21;95.81;96658.22;110229;1240;59711;-64
2023/11/17 08:49:36;;;;;;;3.10;2.60;;;;;;;7.25;93.79;96642.67;110236;1241;59740;-65
2023/11/17 08:52:07;;;;;;;3.70;2.80;;;;;;;7.29;92.97;96635.45;110234;1242;70224;-65
2023/11/17 08:54:37;;;;;;;3.20;2.80;;;;;;;7.32;91.17;96621.52;110219;1242;69958;-65
2023/11/17 08:57:06;;;;;;;4.80;2.90;;;;;;;7.36;90.88;96614.59;110200;1242;69894;-65
2023/11/17 08:59:37;;;;;;;2.80;2.50;;;;;;;7.47;90.11;96605.34;110189;1241;59670;-65
2023/11/17 09:02:07;;;;;;;4.10;2.40;;;;;;;7.59;90.15;96607.41;110239;1241;59724;-65
2023/11/17 09:04:36;;;;;;;3.50;2.50;;;;;;;7.72;88.98;96608.90;110227;1242;70658;-65
2023/11/17 09:07:05;;;;;;;2.90;2.30;;;;;;;7.84;88.07;96610.21;110141;1244;69863;-66
2023/11/17 09:09:36;;;;;;;3.60;2.50;;;;;;;7.95;86.92;96611.04;110212;1241;69301;-65
2023/11/17 09:12:06;;;;;;;4.30;2.70;;;;;;;8.01;85.71;96614.54;110225;1242;59705;-65
2023/11/17 09:14:36;;;;;;;4.60;2.70;;;;;;;8.01;81.38;96616.79;110224;1242;59746;-63
2023/11/17 09:17:06;;;;;;;3.40;2.80;;;;;;;8.02;82.38;96617.36;110188;1241;70548;-65
2023/11/17 09:19:37;;;;;;;6.20;4.30;;;;;;;8.07;82.50;96621.04;110190;1242;69342;-64
2023/11/17 09:22:08;;;;;;;5.50;4.90;;;;;;;8.11;81.47;96630.75;110231;1242;69309;-64
2023/11/17 09:24:38;;;;;;;3.50;2.80;;;;;;;8.17;80.68;96628.42;110216;1242;59745;-63
2023/11/17 09:27:09;;;;;;;3.00;2.70;;;;;;;8.21;79.60;96621.73;110236;1242;59634;-64
2023/11/17 09:29:39;;;;;;;3.40;3.00;;;;;;;8.28;81.04;96618.73;110193;1240;70874;-63
2023/11/17 09:32:08;;;;;;;4.20;3.20;;;;;;;8.36;80.28;96613.12;110182;1242;70409;-64
2023/11/17 09:34:37;;;;;;;4.90;3.60;;;;;;;8.41;77.99;96615.13;110200;1243;69197;-64
2023/11/17 09:37:07;;;;;;;4.20;3.50;;;;;;;8.53;79.85;96617.86;110171;1242;59691;-64
2023/11/17 09:39:40;;;;;;;3.40;2.90;;;;;;;8.89;78.16;96604.09;110137;1241;59686;-64
2023/11/17 09:42:10;;;;;;;3.50;2.70;;;;;;;9.40;75.05;96588.61;110243;1242;71352;-64
2023/11/17 09:44:43;;;;;;;2.80;2.40;;;;;;;9.72;74.58;96579.88;110255;1242;69743;-64
2023/11/17 09:47:21;;;;;;;2.90;2.40;;;;;;;9.96;72.15;96568.13;110142;1242;69394;-64
2023/11/17 09:49:53;;;;;;;26.90;18.50;;;;;;;10.17;73.99;96571.11;110164;1243;59724;-64
2023/11/17 09:52:23;;;;;;;19.90;14.20;;;;;;;10.34;71.56;96563.98;110151;1242;59665;-64
2023/11/17 09:54:53;;;;;;;8.30;7.00;;;;;;;10.46;69.39;96561.29;110194;1244;71922;-62
2023/11/17 09:57:23;;;;;;;4.90;3.20;;;;;;;10.80;71.93;96556.48;110156;1242;69637;-65
2023/11/17 09:59:56;;;;;;;2.90;2.50;;;;;;;11.20;70.21;96547.50;110160;1242;69236;-66
2023/11/17 10:02:27;;;;;;;3.10;2.60;;;;;;;11.62;69.24;96543.56;110218;1243;59660;-63
2023/11/17 10:04:57;;;;;;;5.00;2.60;;;;;;;12.04;65.95;96544.52;110187;1242;59628;-63
2023/11/17 10:07:27;;;;;;;3.10;2.40;;;;;;;12.14;59.85;96536.42;110176;1242;71431;-65
2023/11/17 10:09:57;;;;;;;3.40;2.30;;;;;;;12.06;60.70;96533.52;110199;1242;69219;-63
2023/11/17 10:12:28;;;;;;;2.80;2.20;;;;;;;11.87;58.71;96531.58;110168;1242;69448;-65
2023/11/17 10:14:59;;;;;;;3.60;2.10;;;;;;;11.74;59.28;96526.09;110136;1243;59762;-62
2023/11/17 10:17:28;;;;;;;3.00;1.90;;;;;;;11.55;58.53;96522.25;110178;1242;59681;-63
2023/11/17 10:19:59;;;;;;;3.70;2.50;;;;;;;11.52;59.34;96517.48;110164;1241;71805;-63
2023/11/17 10:22:28;;;;;;;;;;;;;;;11.51;59.29;96508.52;110136;1242;69645;-63
2023/11/17 10:24:58;;;;;;;2.80;2.40;;;;;;;11.59;60.18;96502.02;110140;1242;69801;-63
2023/11/17 10:27:29;;;;;;;3.40;2.30;;;;;;;11.71;60.91;96498.25;110211;1242;60198;-64
2023/11/17 10:29:58;;;;;;;2.60;2.30;;;;;;;11.83;59.85;96495.57;110200;1242;59667;-63
2023/11/17 10:32:29;;;;;;;2.70;2.40;;;;;;;11.87;58.70;96492.13;110197;1243;72397;-64
2023/11/17 10:35:25;;;;;;;3.00;2.00;;;;;;;11.82;57.60;96491.20;110191;1242;69440;-63
2023/11/17 10:37:58;;;;;;;3.00;2.20;;;;;;;11.87;59.85;96491.55;110219;1241;68545;-64
2023/11/17 10:40:28;;;;;;;2.20;1.80;;;;;;;12.04;58.60;96489.13;110171;1242;59757;-64
2023/11/17 10:43:07;;;;;;;3.10;2.10;;;;;;;12.29;56.10;96485.73;110144;1242;59652;-64
2023/11/17 10:45:38;;;;;;;2.30;1.80;;;;;;;12.81;56.28;96474.99;110195;1242;72098;-64
2023/11/17 10:48:13;;;;;;;3.00;1.90;;;;;;;13.31;57.93;96473.85;110240;1241;68899;-65
2023/11/17 10:50:43;;;;;;;2.30;1.50;;;;;;;13.59;53.23;96471.53;110211;1241;69254;-65
2023/11/17 10:53:20;;;;;;;2.10;1.60;;;;;;;14.01;56.49;96468.02;110214;1242;59665;-65
2023/11/17 10:55:57;;;;;;;2.60;1.70;;;;;;;14.30;57.83;96467.19;110194;1241;59747;-64
2023/11/17 10:58:27;;;;;;;2.60;1.80;;;;;;;14.42;56.00;96470.48;109795;1242;504123;-64
2023/11/17 11:00:56;;;;;;;2.20;1.80;;;;;;;14.31;52.54;96467.55;110115;1242;69253;-64
2023/11/17 11:03:29;;;;;;;1.90;1.70;;;;;;;14.31;55.35;96470.21;110136;1242;69882;-63
2023/11/17 11:05:59;;;;;;;2.40;1.80;;;;;;;14.28;54.31;96471.74;110172;1241;59732;-64
2023/11/17 11:08:30;;;;;;;1.80;1.60;;;;;;;14.18;51.58;96469.83;110224;1242;59665;-63
2023/11/17 11:11:00;;;;;;;3.30;1.90;;;;;;;14.17;51.00;96468.70;110188;1242;71206;-64
2023/11/17 11:13:30;;;;;;;3.00;2.40;;;;;;;14.42;51.06;96463.86;110187;1249;69850;-64
2023/11/17 11:16:10;;;;;;;3.80;2.20;;;;;;;14.58;50.84;96464.85;110202;1242;69866;-64
2023/11/17 11:18:47;;;;;;;2.30;1.70;;;;;;;14.89;49.07;96464.60;110223;1241;59674;-64
2023/11/17 11:21:17;;;;;;;2.40;1.70;;;;;;;15.05;48.76;96469.70;110173;1242;59684;-64
2023/11/17 11:23:48;;;;;;;2.00;1.60;;;;;;;15.21;48.09;96467.63;110227;1241;71984;-65
2023/11/17 11:26:17;;;;;;;2.20;1.70;;;;;;;15.35;47.63;96462.00;110189;1242;69700;-63
2023/11/17 11:28:48;;;;;;;;;;;;;;;15.40;48.22;96456.52;110181;1243;69166;-64
2023/11/17 11:31:17;;;;;;;2.40;1.70;;;;;;;15.73;46.72;96451.94;110180;1242;59805;-64
2023/11/17 11:33:47;;;;;;;1.70;1.50;;;;;;;16.30;47.62;96447.52;110171;1241;59747;-64
2023/11/17 11:36:16;;;;;;;;;;;;;;;16.64;46.70;96442.48;110209;1242;71169;-64
2023/11/17 11:38:47;;;;;;;;;;;;;;;16.79;47.02;96435.45;110192;1241;68735;-64
2023/11/17 11:41:22;;;;;;;1.90;1.50;;;;;;;17.11;45.24;96435.95;110191;1240;69923;-63
2023/11/17 11:43:52;;;;;;;2.40;1.70;;;;;;;17.35;43.07;96433.84;110193;1241;59753;-63
2023/11/17 11:46:25;;;;;;;2.60;1.70;;;;;;;17.30;41.81;96429.88;110170;1249;59637;-64
2023/11/17 11:49:00;;;;;;;2.60;2.00;;;;;;;16.99;42.12;96426.42;110194;1242;70801;-63
2023/11/17 11:51:33;;;;;;;2.30;2.00;;;;;;;16.99;43.28;96424.67;110186;1242;68360;-64